sensor_id;sensor_type;location;lat;lon;timestamp;temperature;humidity
13268;DHT22;6702;47.068;15.458;2023-04-19T00:01:09;12.70;99.90
13268;DHT22;6702;47.068;15.458;2023-04-19T00:04:13;12.70;99.90
13268;DHT22;6702;47.068;15.458;2023-04-19T00:07:17;12.70;99.90
13268;DHT22;6702;47.068;15.458;2023-04-19T00:10:21;12.80;99.90
13268;DHT22;6702;47.068;15.458;2023-04-19T00:13:25;12.70;99.90
13268;DHT22;6702;47.068;15.458;2023-04-19T00:16:28;12.70;99.90
13268;DHT22;6702;47.068;15.458;2023-04-19T00:19:32;12.80;99.90
13268;DHT22;6702;47.068;15.458;2023-04-19T00:22:35;12.70;99.90
13268;DHT22;6702;47.068;15.458;2023-04-19T00:25:38;12.70;99.90
13268;DHT22;6702;47.068;15.458;2023-04-19T00:28:43;12.70;99.90
13268;DHT22;6702;47.068;15.458;2023-04-19T00:31:46;12.60;99.90
13268;DHT22;6702;47.068;15.458;2023-04-19T00:34:49;12.50;99.90
13268;DHT22;6702;47.068;15.458;2023-04-19T00:37:53;12.50;99.90
13268;DHT22;6702;47.068;15.458;2023-04-19T00:40:56;12.50;99.90
13268;DHT22;6702;47.068;15.458;2023-04-19T00:44:01;12.50;99.90
13268;DHT22;6702;47.068;15.458;2023-04-19T00:47:04;12.50;99.90
13268;DHT22;6702;47.068;15.458;2023-04-19T00:50:08;12.40;99.90
13268;DHT22;6702;47.068;15.458;2023-04-19T00:53:11;12.40;99.90
13268;DHT22;6702;47.068;15.458;2023-04-19T00:56:16;12.40;99.90
13268;DHT22;6702;47.068;15.458;2023-04-19T00:59:21;12.40;99.90
13268;DHT22;6702;47.068;15.458;2023-04-19T01:02:24;12.40;99.90
13268;DHT22;6702;47.068;15.458;2023-04-19T01:05:29;12.40;99.90
13268;DHT22;6702;47.068;15.458;2023-04-19T01:08:32;12.40;99.90
13268;DHT22;6702;47.068;15.458;2023-04-19T01:11:35;12.50;99.90
13268;DHT22;6702;47.068;15.458;2023-04-19T01:14:40;12.50;99.90
13268;DHT22;6702;47.068;15.458;2023-04-19T01:17:43;12.50;99.90
13268;DHT22;6702;47.068;15.458;2023-04-19T01:20:46;12.60;99.90
13268;DHT22;6702;47.068;15.458;2023-04-19T01:23:54;12.60;99.90
13268;DHT22;6702;47.068;15.458;2023-04-19T01:26:57;12.60;99.90
13268;DHT22;6702;47.068;15.458;2023-04-19T01:30:00;12.50;99.90
13268;DHT22;6702;47.068;15.458;2023-04-19T01:33:03;12.60;99.90
13268;DHT22;6702;47.068;15.458;2023-04-19T01:36:07;12.60;99.90
13268;DHT22;6702;47.068;15.458;2023-04-19T01:39:11;12.60;99.90
13268;DHT22;6702;47.068;15.458;2023-04-19T01:42:14;12.50;99.90
13268;DHT22;6702;47.068;15.458;2023-04-19T01:45:18;12.50;99.90
13268;DHT22;6702;47.068;15.458;2023-04-19T01:48:21;12.50;99.90
13268;DHT22;6702;47.068;15.458;2023-04-19T01:51:24;12.40;99.90
13268;DHT22;6702;47.068;15.458;2023-04-19T01:54:29;12.40;99.90
13268;DHT22;6702;47.068;15.458;2023-04-19T01:57:32;12.50;99.90
13268;DHT22;6702;47.068;15.458;2023-04-19T02:00:35;12.50;99.90
13268;DHT22;6702;47.068;15.458;2023-04-19T02:03:39;12.50;99.90
13268;DHT22;6702;47.068;15.458;2023-04-19T02:06:42;12.40;99.90
13268;DHT22;6702;47.068;15.458;2023-04-19T02:09:47;12.40;99.90
13268;DHT22;6702;47.068;15.458;2023-04-19T02:12:50;12.30;99.90
13268;DHT22;6702;47.068;15.458;2023-04-19T02:15:53;12.30;99.90
13268;DHT22;6702;47.068;15.458;2023-04-19T02:18:56;12.30;99.90
13268;DHT22;6702;47.068;15.458;2023-04-19T02:21:59;12.20;99.90
13268;DHT22;6702;47.068;15.458;2023-04-19T02:25:05;12.20;99.90
13268;DHT22;6702;47.068;15.458;2023-04-19T02:28:08;12.20;99.90
13268;DHT22;6702;47.068;15.458;2023-04-19T02:31:12;12.20;99.90
13268;DHT22;6702;47.068;15.458;2023-04-19T02:34:15;12.10;99.90
13268;DHT22;6702;47.068;15.458;2023-04-19T02:37:19;12.00;99.90
13268;DHT22;6702;47.068;15.458;2023-04-19T02:40:23;12.00;99.90
13268;DHT22;6702;47.068;15.458;2023-04-19T02:43:27;12.00;99.90
13268;DHT22;6702;47.068;15.458;2023-04-19T02:46:30;12.00;99.90
13268;DHT22;6702;47.068;15.458;2023-04-19T02:49:33;12.00;99.90
13268;DHT22;6702;47.068;15.458;2023-04-19T02:52:37;12.00;99.90
13268;DHT22;6702;47.068;15.458;2023-04-19T02:55:42;12.00;99.90
13268;DHT22;6702;47.068;15.458;2023-04-19T02:58:46;11.90;99.90
13268;DHT22;6702;47.068;15.458;2023-04-19T03:01:49;11.90;99.90
13268;DHT22;6702;47.068;15.458;2023-04-19T03:04:52;11.80;99.90
13268;DHT22;6702;47.068;15.458;2023-04-19T03:07:56;11.80;99.90
13268;DHT22;6702;47.068;15.458;2023-04-19T03:11:00;11.70;99.90
13268;DHT22;6702;47.068;15.458;2023-04-19T03:14:03;11.70;99.90
13268;DHT22;6702;47.068;15.458;2023-04-19T03:17:07;11.60;99.90
13268;DHT22;6702;47.068;15.458;2023-04-19T03:20:10;11.70;99.90
13268;DHT22;6702;47.068;15.458;2023-04-19T03:23:14;11.60;99.90
13268;DHT22;6702;47.068;15.458;2023-04-19T03:26:18;11.50;99.90
13268;DHT22;6702;47.068;15.458;2023-04-19T03:29:21;11.50;99.90
13268;DHT22;6702;47.068;15.458;2023-04-19T03:32:25;11.40;99.90
13268;DHT22;6702;47.068;15.458;2023-04-19T03:35:28;11.40;99.90
13268;DHT22;6702;47.068;15.458;2023-04-19T03:38:33;11.40;99.90
13268;DHT22;6702;47.068;15.458;2023-04-19T03:41:39;11.30;99.90
13268;DHT22;6702;47.068;15.458;2023-04-19T03:44:42;11.20;99.90
13268;DHT22;6702;47.068;15.458;2023-04-19T03:47:45;11.20;99.90
13268;DHT22;6702;47.068;15.458;2023-04-19T03:50:48;11.10;99.90
13268;DHT22;6702;47.068;15.458;2023-04-19T03:53:52;11.00;99.90
13268;DHT22;6702;47.068;15.458;2023-04-19T03:56:56;11.00;99.90
13268;DHT22;6702;47.068;15.458;2023-04-19T03:59:59;10.90;99.90
13268;DHT22;6702;47.068;15.458;2023-04-19T04:03:02;10.90;99.90
13268;DHT22;6702;47.068;15.458;2023-04-19T04:06:06;10.80;99.90
13268;DHT22;6702;47.068;15.458;2023-04-19T04:09:09;10.70;99.90
13268;DHT22;6702;47.068;15.458;2023-04-19T04:12:14;10.70;99.90
13268;DHT22;6702;47.068;15.458;2023-04-19T04:15:17;10.60;99.90
13268;DHT22;6702;47.068;15.458;2023-04-19T04:18:20;10.50;99.90
13268;DHT22;6702;47.068;15.458;2023-04-19T04:21:24;10.40;99.90
13268;DHT22;6702;47.068;15.458;2023-04-19T04:24:28;10.40;99.90
13268;DHT22;6702;47.068;15.458;2023-04-19T04:27:35;10.40;99.90
13268;DHT22;6702;47.068;15.458;2023-04-19T04:30:38;10.40;99.90
13268;DHT22;6702;47.068;15.458;2023-04-19T04:33:42;10.40;99.90
13268;DHT22;6702;47.068;15.458;2023-04-19T04:36:46;10.40;99.90
13268;DHT22;6702;47.068;15.458;2023-04-19T04:39:51;10.40;99.90
13268;DHT22;6702;47.068;15.458;2023-04-19T04:42:55;10.40;99.90
13268;DHT22;6702;47.068;15.458;2023-04-19T04:46:01;10.40;99.90
13268;DHT22;6702;47.068;15.458;2023-04-19T04:49:05;10.40;99.90
13268;DHT22;6702;47.068;15.458;2023-04-19T04:52:08;10.50;99.90
13268;DHT22;6702;47.068;15.458;2023-04-19T04:55:11;10.50;99.90
13268;DHT22;6702;47.068;15.458;2023-04-19T04:58:16;10.50;99.90
13268;DHT22;6702;47.068;15.458;2023-04-19T05:01:21;10.50;99.90
13268;DHT22;6702;47.068;15.458;2023-04-19T05:04:25;10.60;99.90
13268;DHT22;6702;47.068;15.458;2023-04-19T05:07:28;10.60;99.90
13268;DHT22;6702;47.068;15.458;2023-04-19T05:10:31;10.70;99.90
13268;DHT22;6702;47.068;15.458;2023-04-19T05:13:35;10.80;99.90
13268;DHT22;6702;47.068;15.458;2023-04-19T05:16:39;11.00;99.90
13268;DHT22;6702;47.068;15.458;2023-04-19T05:19:42;11.10;99.90
13268;DHT22;6702;47.068;15.458;2023-04-19T05:22:45;11.40;99.90
13268;DHT22;6702;47.068;15.458;2023-04-19T05:25:48;11.60;99.90
13268;DHT22;6702;47.068;15.458;2023-04-19T05:28:53;11.90;99.90
13268;DHT22;6702;47.068;15.458;2023-04-19T05:31:57;12.20;99.90
13268;DHT22;6702;47.068;15.458;2023-04-19T05:35:00;12.40;99.90
13268;DHT22;6702;47.068;15.458;2023-04-19T05:38:03;12.60;99.90
13268;DHT22;6702;47.068;15.458;2023-04-19T05:41:06;12.80;99.90
13268;DHT22;6702;47.068;15.458;2023-04-19T05:44:11;13.10;99.90
13268;DHT22;6702;47.068;15.458;2023-04-19T05:47:14;13.40;99.90
13268;DHT22;6702;47.068;15.458;2023-04-19T05:50:18;13.90;99.90
13268;DHT22;6702;47.068;15.458;2023-04-19T05:53:21;14.60;99.10
13268;DHT22;6702;47.068;15.458;2023-04-19T05:56:25;15.30;97.60
13268;DHT22;6702;47.068;15.458;2023-04-19T05:59:29;15.80;95.70
13268;DHT22;6702;47.068;15.458;2023-04-19T06:02:32;16.10;94.90
13268;DHT22;6702;47.068;15.458;2023-04-19T06:05:36;16.20;94.20
13268;DHT22;6702;47.068;15.458;2023-04-19T06:08:41;16.40;93.30
13268;DHT22;6702;47.068;15.458;2023-04-19T06:11:44;16.50;92.90
13268;DHT22;6702;47.068;15.458;2023-04-19T06:14:53;16.50;92.60
13268;DHT22;6702;47.068;15.458;2023-04-19T06:17:56;16.70;92.70
13268;DHT22;6702;47.068;15.458;2023-04-19T06:21:00;16.80;91.50
13268;DHT22;6702;47.068;15.458;2023-04-19T06:24:05;16.80;90.90
13268;DHT22;6702;47.068;15.458;2023-04-19T06:27:08;16.70;90.20
13268;DHT22;6702;47.068;15.458;2023-04-19T06:30:13;16.70;90.00
13268;DHT22;6702;47.068;15.458;2023-04-19T06:33:16;16.90;88.80
13268;DHT22;6702;47.068;15.458;2023-04-19T06:36:19;17.20;86.00
13268;DHT22;6702;47.068;15.458;2023-04-19T06:39:22;17.30;84.70
13268;DHT22;6702;47.068;15.458;2023-04-19T06:42:25;17.40;84.00
13268;DHT22;6702;47.068;15.458;2023-04-19T06:45:30;17.60;81.60
13268;DHT22;6702;47.068;15.458;2023-04-19T06:48:34;18.20;80.00
13268;DHT22;6702;47.068;15.458;2023-04-19T06:51:38;18.40;77.00
13268;DHT22;6702;47.068;15.458;2023-04-19T06:54:41;18.90;75.70
13268;DHT22;6702;47.068;15.458;2023-04-19T06:57:44;19.80;71.70
13268;DHT22;6702;47.068;15.458;2023-04-19T07:00:49;20.60;67.80
13268;DHT22;6702;47.068;15.458;2023-04-19T07:03:52;21.50;63.80
13268;DHT22;6702;47.068;15.458;2023-04-19T07:06:58;22.60;60.50
13268;DHT22;6702;47.068;15.458;2023-04-19T07:10:01;23.10;56.30
13268;DHT22;6702;47.068;15.458;2023-04-19T07:13:05;23.90;54.10
13268;DHT22;6702;47.068;15.458;2023-04-19T07:16:09;24.50;50.60
13268;DHT22;6702;47.068;15.458;2023-04-19T07:19:12;25.00;49.00
13268;DHT22;6702;47.068;15.458;2023-04-19T07:22:15;25.60;46.40
13268;DHT22;6702;47.068;15.458;2023-04-19T07:25:19;26.40;45.00
13268;DHT22;6702;47.068;15.458;2023-04-19T07:28:22;26.70;42.50
13268;DHT22;6702;47.068;15.458;2023-04-19T07:31:27;26.60;42.00
13268;DHT22;6702;47.068;15.458;2023-04-19T07:34:30;27.30;39.90
13268;DHT22;6702;47.068;15.458;2023-04-19T07:37:33;28.50;38.00
13268;DHT22;6702;47.068;15.458;2023-04-19T07:40:36;29.80;35.10
13268;DHT22;6702;47.068;15.458;2023-04-19T07:43:39;29.90;32.50
13268;DHT22;6702;47.068;15.458;2023-04-19T07:46:44;30.90;32.50
13268;DHT22;6702;47.068;15.458;2023-04-19T07:49:50;32.10;30.10
13268;DHT22;6702;47.068;15.458;2023-04-19T07:52:54;32.90;28.40
13268;DHT22;6702;47.068;15.458;2023-04-19T07:55:57;34.00;26.40
13268;DHT22;6702;47.068;15.458;2023-04-19T07:59:00;34.00;25.10
13268;DHT22;6702;47.068;15.458;2023-04-19T08:02:11;34.50;24.60
13268;DHT22;6702;47.068;15.458;2023-04-19T08:05:15;33.90;24.10
13268;DHT22;6702;47.068;15.458;2023-04-19T08:08:19;33.90;24.80
13268;DHT22;6702;47.068;15.458;2023-04-19T08:11:22;34.90;23.80
13268;DHT22;6702;47.068;15.458;2023-04-19T08:14:26;35.40;22.70
13268;DHT22;6702;47.068;15.458;2023-04-19T08:17:46;35.80;22.20
13268;DHT22;6702;47.068;15.458;2023-04-19T08:20:49;36.10;22.40
13268;DHT22;6702;47.068;15.458;2023-04-19T08:23:52;37.10;21.30
13268;DHT22;6702;47.068;15.458;2023-04-19T08:26:55;37.70;20.80
13268;DHT22;6702;47.068;15.458;2023-04-19T08:30:01;38.60;19.80
13268;DHT22;6702;47.068;15.458;2023-04-19T08:33:05;39.30;19.00
13268;DHT22;6702;47.068;15.458;2023-04-19T08:36:11;39.10;18.40
13268;DHT22;6702;47.068;15.458;2023-04-19T08:39:20;39.40;18.20
13268;DHT22;6702;47.068;15.458;2023-04-19T08:42:34;39.90;17.80
13268;DHT22;6702;47.068;15.458;2023-04-19T08:45:38;40.30;17.60
13268;DHT22;6702;47.068;15.458;2023-04-19T08:48:44;41.20;16.90
13268;DHT22;6702;47.068;15.458;2023-04-19T08:51:48;41.10;16.50
13268;DHT22;6702;47.068;15.458;2023-04-19T08:54:53;39.30;16.70
13268;DHT22;6702;47.068;15.458;2023-04-19T08:57:56;36.90;18.10
13268;DHT22;6702;47.068;15.458;2023-04-19T09:01:02;34.90;19.00
13268;DHT22;6702;47.068;15.458;2023-04-19T09:04:07;33.20;20.70
13268;DHT22;6702;47.068;15.458;2023-04-19T09:07:30;34.70;20.60
13268;DHT22;6702;47.068;15.458;2023-04-19T09:10:33;34.90;19.90
13268;DHT22;6702;47.068;15.458;2023-04-19T09:13:36;33.70;20.30
13268;DHT22;6702;47.068;15.458;2023-04-19T09:16:41;31.60;21.90
13268;DHT22;6702;47.068;15.458;2023-04-19T09:19:47;29.80;23.30
13268;DHT22;6702;47.068;15.458;2023-04-19T09:23:02;28.00;25.00
13268;DHT22;6702;47.068;15.458;2023-04-19T09:26:06;26.70;26.60
13268;DHT22;6702;47.068;15.458;2023-04-19T09:29:24;25.30;28.00
13268;DHT22;6702;47.068;15.458;2023-04-19T09:32:40;24.20;29.70
13268;DHT22;6702;47.068;15.458;2023-04-19T09:35:48;23.00;31.00
13268;DHT22;6702;47.068;15.458;2023-04-19T09:38:51;22.00;32.20
13268;DHT22;6702;47.068;15.458;2023-04-19T09:41:54;21.40;33.60
13268;DHT22;6702;47.068;15.458;2023-04-19T09:44:58;20.80;35.00
13268;DHT22;6702;47.068;15.458;2023-04-19T09:48:06;20.30;36.20
13268;DHT22;6702;47.068;15.458;2023-04-19T09:51:11;20.10;37.20
13268;DHT22;6702;47.068;15.458;2023-04-19T09:54:17;20.00;37.40
13268;DHT22;6702;47.068;15.458;2023-04-19T09:57:20;19.90;37.80
13268;DHT22;6702;47.068;15.458;2023-04-19T10:00:24;19.80;37.30
13268;DHT22;6702;47.068;15.458;2023-04-19T10:03:30;19.70;37.80
13268;DHT22;6702;47.068;15.458;2023-04-19T10:06:36;19.60;37.40
13268;DHT22;6702;47.068;15.458;2023-04-19T10:10:00;19.50;37.30
13268;DHT22;6702;47.068;15.458;2023-04-19T10:13:21;19.50;38.00
13268;DHT22;6702;47.068;15.458;2023-04-19T10:16:29;19.70;38.40
13268;DHT22;6702;47.068;15.458;2023-04-19T10:19:34;19.60;38.40
13268;DHT22;6702;47.068;15.458;2023-04-19T10:22:40;19.60;38.90
13268;DHT22;6702;47.068;15.458;2023-04-19T10:25:45;19.50;38.80
13268;DHT22;6702;47.068;15.458;2023-04-19T10:28:48;19.20;40.40
13268;DHT22;6702;47.068;15.458;2023-04-19T10:31:54;18.90;41.80
13268;DHT22;6702;47.068;15.458;2023-04-19T10:35:01;18.60;42.50
13268;DHT22;6702;47.068;15.458;2023-04-19T10:38:09;18.40;42.90
13268;DHT22;6702;47.068;15.458;2023-04-19T10:41:13;18.10;43.50
13268;DHT22;6702;47.068;15.458;2023-04-19T10:44:22;17.60;44.90
13268;DHT22;6702;47.068;15.458;2023-04-19T10:47:40;17.40;46.60
13268;DHT22;6702;47.068;15.458;2023-04-19T10:50:59;17.10;49.80
13268;DHT22;6702;47.068;15.458;2023-04-19T10:54:04;16.80;51.40
13268;DHT22;6702;47.068;15.458;2023-04-19T10:57:08;16.70;52.60
13268;DHT22;6702;47.068;15.458;2023-04-19T11:00:19;16.80;54.00
13268;DHT22;6702;47.068;15.458;2023-04-19T11:03:52;16.90;55.80
13268;DHT22;6702;47.068;15.458;2023-04-19T11:06:58;17.00;58.70
13268;DHT22;6702;47.068;15.458;2023-04-19T11:10:06;17.00;60.20
13268;DHT22;6702;47.068;15.458;2023-04-19T11:13:10;16.80;57.10
13268;DHT22;6702;47.068;15.458;2023-04-19T11:16:13;16.60;57.00
13268;DHT22;6702;47.068;15.458;2023-04-19T11:19:20;16.50;57.90
13268;DHT22;6702;47.068;15.458;2023-04-19T11:22:30;16.40;58.40
13268;DHT22;6702;47.068;15.458;2023-04-19T11:25:35;16.30;62.70
13268;DHT22;6702;47.068;15.458;2023-04-19T11:28:38;16.20;66.40
13268;DHT22;6702;47.068;15.458;2023-04-19T11:31:43;16.20;68.60
13268;DHT22;6702;47.068;15.458;2023-04-19T11:34:47;16.20;71.40
13268;DHT22;6702;47.068;15.458;2023-04-19T11:37:50;16.10;74.40
13268;DHT22;6702;47.068;15.458;2023-04-19T11:40:59;15.90;77.30
13268;DHT22;6702;47.068;15.458;2023-04-19T11:44:02;15.60;80.50
13268;DHT22;6702;47.068;15.458;2023-04-19T11:47:05;15.40;83.70
13268;DHT22;6702;47.068;15.458;2023-04-19T11:50:31;15.40;84.40
13268;DHT22;6702;47.068;15.458;2023-04-19T11:53:35;15.40;86.60
13268;DHT22;6702;47.068;15.458;2023-04-19T11:56:57;15.40;89.60
13268;DHT22;6702;47.068;15.458;2023-04-19T12:00:02;15.40;90.70
13268;DHT22;6702;47.068;15.458;2023-04-19T12:03:08;15.50;91.70
13268;DHT22;6702;47.068;15.458;2023-04-19T12:06:13;15.40;92.30
13268;DHT22;6702;47.068;15.458;2023-04-19T12:09:19;15.30;93.40
13268;DHT22;6702;47.068;15.458;2023-04-19T12:12:32;15.20;94.70
13268;DHT22;6702;47.068;15.458;2023-04-19T12:15:45;15.00;96.00
13268;DHT22;6702;47.068;15.458;2023-04-19T12:18:50;15.10;97.00
13268;DHT22;6702;47.068;15.458;2023-04-19T12:22:07;15.10;97.70
13268;DHT22;6702;47.068;15.458;2023-04-19T12:25:10;15.30;97.80
13268;DHT22;6702;47.068;15.458;2023-04-19T12:28:15;15.40;97.50
13268;DHT22;6702;47.068;15.458;2023-04-19T12:31:18;15.50;97.60
13268;DHT22;6702;47.068;15.458;2023-04-19T12:34:22;15.70;98.00
13268;DHT22;6702;47.068;15.458;2023-04-19T12:37:26;15.90;96.90
13268;DHT22;6702;47.068;15.458;2023-04-19T12:40:29;16.30;97.60
13268;DHT22;6702;47.068;15.458;2023-04-19T12:43:34;16.90;97.10
13268;DHT22;6702;47.068;15.458;2023-04-19T12:46:37;17.50;94.20
13268;DHT22;6702;47.068;15.458;2023-04-19T12:49:40;18.10;92.90
13268;DHT22;6702;47.068;15.458;2023-04-19T12:52:44;18.20;91.60
13268;DHT22;6702;47.068;15.458;2023-04-19T12:55:47;18.20;91.50
13268;DHT22;6702;47.068;15.458;2023-04-19T12:58:52;18.50;91.40
13268;DHT22;6702;47.068;15.458;2023-04-19T13:01:55;18.60;89.60
13268;DHT22;6702;47.068;15.458;2023-04-19T13:04:59;18.20;87.40
13268;DHT22;6702;47.068;15.458;2023-04-19T13:08:03;17.70;88.20
13268;DHT22;6702;47.068;15.458;2023-04-19T13:11:06;17.60;90.00
13268;DHT22;6702;47.068;15.458;2023-04-19T13:14:11;17.80;88.80
13268;DHT22;6702;47.068;15.458;2023-04-19T13:17:14;17.60;90.00
13268;DHT22;6702;47.068;15.458;2023-04-19T13:20:18;18.10;90.00
13268;DHT22;6702;47.068;15.458;2023-04-19T13:23:21;18.60;89.30
13268;DHT22;6702;47.068;15.458;2023-04-19T13:26:24;18.80;87.80
13268;DHT22;6702;47.068;15.458;2023-04-19T13:29:29;18.40;87.00
13268;DHT22;6702;47.068;15.458;2023-04-19T13:32:32;18.20;85.90
13268;DHT22;6702;47.068;15.458;2023-04-19T13:35:36;18.00;85.30
13268;DHT22;6702;47.068;15.458;2023-04-19T13:38:39;17.60;87.20
13268;DHT22;6702;47.068;15.458;2023-04-19T13:41:42;17.40;86.00
13268;DHT22;6702;47.068;15.458;2023-04-19T13:44:46;17.30;85.70
13268;DHT22;6702;47.068;15.458;2023-04-19T13:47:51;17.30;85.20
13268;DHT22;6702;47.068;15.458;2023-04-19T13:50:55;17.30;86.00
13268;DHT22;6702;47.068;15.458;2023-04-19T13:53:58;17.50;85.10
13268;DHT22;6702;47.068;15.458;2023-04-19T13:57:01;17.20;86.30
13268;DHT22;6702;47.068;15.458;2023-04-19T14:00:07;16.70;87.30
13268;DHT22;6702;47.068;15.458;2023-04-19T14:03:10;16.60;89.50
13268;DHT22;6702;47.068;15.458;2023-04-19T14:06:14;16.60;89.90
13268;DHT22;6702;47.068;15.458;2023-04-19T14:09:17;16.30;90.60
13268;DHT22;6702;47.068;15.458;2023-04-19T14:12:20;16.30;90.90
13268;DHT22;6702;47.068;15.458;2023-04-19T14:15:25;16.30;90.90
13268;DHT22;6702;47.068;15.458;2023-04-19T14:18:28;16.40;91.20
13268;DHT22;6702;47.068;15.458;2023-04-19T14:21:31;16.30;91.10
13268;DHT22;6702;47.068;15.458;2023-04-19T14:24:34;16.20;91.10
13268;DHT22;6702;47.068;15.458;2023-04-19T14:27:38;16.30;91.30
13268;DHT22;6702;47.068;15.458;2023-04-19T14:30:42;16.30;91.30
13268;DHT22;6702;47.068;15.458;2023-04-19T14:33:45;16.50;91.30
13268;DHT22;6702;47.068;15.458;2023-04-19T14:36:48;16.70;90.40
13268;DHT22;6702;47.068;15.458;2023-04-19T14:39:52;16.60;90.30
13268;DHT22;6702;47.068;15.458;2023-04-19T14:42:55;16.50;90.60
13268;DHT22;6702;47.068;15.458;2023-04-19T14:46:00;16.30;90.70
13268;DHT22;6702;47.068;15.458;2023-04-19T14:49:03;16.50;91.60
13268;DHT22;6702;47.068;15.458;2023-04-19T14:52:07;16.60;91.90
13268;DHT22;6702;47.068;15.458;2023-04-19T14:55:10;16.50;91.30
13268;DHT22;6702;47.068;15.458;2023-04-19T14:58:13;16.10;91.80
13268;DHT22;6702;47.068;15.458;2023-04-19T15:01:18;15.80;92.90
13268;DHT22;6702;47.068;15.458;2023-04-19T15:04:24;15.60;93.20
13268;DHT22;6702;47.068;15.458;2023-04-19T15:07:27;15.40;93.80
13268;DHT22;6702;47.068;15.458;2023-04-19T15:10:30;15.30;92.50
13268;DHT22;6702;47.068;15.458;2023-04-19T15:13:33;15.20;92.80
13268;DHT22;6702;47.068;15.458;2023-04-19T15:16:38;15.10;93.40
13268;DHT22;6702;47.068;15.458;2023-04-19T15:19:41;15.00;94.60
13268;DHT22;6702;47.068;15.458;2023-04-19T15:22:45;14.90;96.10
13268;DHT22;6702;47.068;15.458;2023-04-19T15:25:48;14.70;97.50
13268;DHT22;6702;47.068;15.458;2023-04-19T15:28:51;14.60;98.60
13268;DHT22;6702;47.068;15.458;2023-04-19T15:31:58;14.60;99.90
13268;DHT22;6702;47.068;15.458;2023-04-19T15:35:01;14.50;99.90
13268;DHT22;6702;47.068;15.458;2023-04-19T15:38:04;14.50;99.90
13268;DHT22;6702;47.068;15.458;2023-04-19T15:41:07;14.40;99.90
13268;DHT22;6702;47.068;15.458;2023-04-19T15:44:10;14.40;99.90
13268;DHT22;6702;47.068;15.458;2023-04-19T15:47:15;14.30;99.90
13268;DHT22;6702;47.068;15.458;2023-04-19T15:50:18;14.20;99.90
13268;DHT22;6702;47.068;15.458;2023-04-19T15:53:21;14.00;99.90
13268;DHT22;6702;47.068;15.458;2023-04-19T15:56:24;13.90;99.90
13268;DHT22;6702;47.068;15.458;2023-04-19T15:59:27;13.90;99.90
13268;DHT22;6702;47.068;15.458;2023-04-19T16:02:35;13.80;99.90
13268;DHT22;6702;47.068;15.458;2023-04-19T16:05:38;13.70;99.90
13268;DHT22;6702;47.068;15.458;2023-04-19T16:08:41;13.70;99.90
13268;DHT22;6702;47.068;15.458;2023-04-19T16:11:45;13.60;99.90
13268;DHT22;6702;47.068;15.458;2023-04-19T16:14:48;13.60;99.90
13268;DHT22;6702;47.068;15.458;2023-04-19T16:17:52;13.60;99.90
13268;DHT22;6702;47.068;15.458;2023-04-19T16:20:55;13.50;99.90
13268;DHT22;6702;47.068;15.458;2023-04-19T16:23:58;13.60;99.90
13268;DHT22;6702;47.068;15.458;2023-04-19T16:27:02;13.50;99.90
13268;DHT22;6702;47.068;15.458;2023-04-19T16:30:07;13.50;99.90
13268;DHT22;6702;47.068;15.458;2023-04-19T16:33:11;13.50;99.90
13268;DHT22;6702;47.068;15.458;2023-04-19T16:36:16;13.50;99.90
13268;DHT22;6702;47.068;15.458;2023-04-19T16:39:19;13.50;99.90
13268;DHT22;6702;47.068;15.458;2023-04-19T16:42:22;13.50;99.90
13268;DHT22;6702;47.068;15.458;2023-04-19T16:45:26;13.40;99.90
13268;DHT22;6702;47.068;15.458;2023-04-19T16:48:30;13.40;99.90
13268;DHT22;6702;47.068;15.458;2023-04-19T16:51:33;13.40;99.90
13268;DHT22;6702;47.068;15.458;2023-04-19T16:54:36;13.30;99.90
13268;DHT22;6702;47.068;15.458;2023-04-19T16:57:40;13.30;99.90
13268;DHT22;6702;47.068;15.458;2023-04-19T17:00:44;13.20;99.90
13268;DHT22;6702;47.068;15.458;2023-04-19T17:03:49;13.20;99.90
13268;DHT22;6702;47.068;15.458;2023-04-19T17:06:52;13.20;99.90
13268;DHT22;6702;47.068;15.458;2023-04-19T17:09:59;13.10;99.90
13268;DHT22;6702;47.068;15.458;2023-04-19T17:13:02;13.10;99.90
13268;DHT22;6702;47.068;15.458;2023-04-19T17:16:06;13.10;99.90
13268;DHT22;6702;47.068;15.458;2023-04-19T17:19:11;13.00;99.90
13268;DHT22;6702;47.068;15.458;2023-04-19T17:22:15;13.00;99.90
13268;DHT22;6702;47.068;15.458;2023-04-19T17:25:18;13.00;99.90
13268;DHT22;6702;47.068;15.458;2023-04-19T17:28:23;13.00;99.90
13268;DHT22;6702;47.068;15.458;2023-04-19T17:31:26;12.90;99.90
13268;DHT22;6702;47.068;15.458;2023-04-19T17:34:31;12.90;99.90
13268;DHT22;6702;47.068;15.458;2023-04-19T17:37:38;12.90;99.90
13268;DHT22;6702;47.068;15.458;2023-04-19T17:40:42;12.80;99.90
13268;DHT22;6702;47.068;15.458;2023-04-19T17:43:46;12.80;99.90
13268;DHT22;6702;47.068;15.458;2023-04-19T17:46:50;12.70;99.90
13268;DHT22;6702;47.068;15.458;2023-04-19T17:50:04;12.60;99.90
13268;DHT22;6702;47.068;15.458;2023-04-19T17:53:08;12.60;99.90
13268;DHT22;6702;47.068;15.458;2023-04-19T17:56:12;12.60;99.90
13268;DHT22;6702;47.068;15.458;2023-04-19T17:59:15;12.50;99.90
13268;DHT22;6702;47.068;15.458;2023-04-19T18:02:20;12.50;99.90
13268;DHT22;6702;47.068;15.458;2023-04-19T18:05:26;12.40;99.90
13268;DHT22;6702;47.068;15.458;2023-04-19T18:08:30;12.40;99.90
13268;DHT22;6702;47.068;15.458;2023-04-19T18:11:34;12.30;99.90
13268;DHT22;6702;47.068;15.458;2023-04-19T18:14:37;12.30;99.90
13268;DHT22;6702;47.068;15.458;2023-04-19T18:17:41;12.20;99.90
13268;DHT22;6702;47.068;15.458;2023-04-19T18:20:46;12.20;99.90
13268;DHT22;6702;47.068;15.458;2023-04-19T18:23:51;12.10;99.90
13268;DHT22;6702;47.068;15.458;2023-04-19T18:26:56;12.10;99.90
13268;DHT22;6702;47.068;15.458;2023-04-19T18:30:01;12.10;99.90
13268;DHT22;6702;47.068;15.458;2023-04-19T18:33:05;12.10;99.90
13268;DHT22;6702;47.068;15.458;2023-04-19T18:36:10;12.10;99.90
13268;DHT22;6702;47.068;15.458;2023-04-19T18:39:14;12.10;99.90
13268;DHT22;6702;47.068;15.458;2023-04-19T18:42:22;12.10;99.90
13268;DHT22;6702;47.068;15.458;2023-04-19T18:45:25;12.00;99.90
13268;DHT22;6702;47.068;15.458;2023-04-19T18:48:30;12.00;99.90
13268;DHT22;6702;47.068;15.458;2023-04-19T18:51:37;12.00;99.90
13268;DHT22;6702;47.068;15.458;2023-04-19T18:54:41;12.10;99.90
13268;DHT22;6702;47.068;15.458;2023-04-19T18:57:45;12.10;99.90
13268;DHT22;6702;47.068;15.458;2023-04-19T19:00:49;12.10;99.90
13268;DHT22;6702;47.068;15.458;2023-04-19T19:03:53;12.00;99.90
13268;DHT22;6702;47.068;15.458;2023-04-19T19:07:20;12.00;99.90
13268;DHT22;6702;47.068;15.458;2023-04-19T19:10:37;12.00;99.90
13268;DHT22;6702;47.068;15.458;2023-04-19T19:14:01;12.00;99.90
13268;DHT22;6702;47.068;15.458;2023-04-19T19:17:06;12.00;99.90
13268;DHT22;6702;47.068;15.458;2023-04-19T19:20:11;12.00;99.90
13268;DHT22;6702;47.068;15.458;2023-04-19T19:23:20;11.90;99.90
13268;DHT22;6702;47.068;15.458;2023-04-19T19:26:38;12.00;99.90